| time (UTC) | temp F | wind direction | speed knots | gust knots | rain 1hr in | rain 24hr in | rain mn in | humidity % | barometer mb |
| 20260503224505 | 78 | 344 | 1.7 | 9.6 | 0.00 | 0.00 | 0.00 | 42 | 1011.7 |
| 20260503224005 | 78 | 333 | 3.5 | 9.6 | 0.00 | 0.00 | 0.00 | 42 | 1011.8 |
| 20260503223503 | 78 | 318 | 1.7 | 8.7 | 0.00 | 0.00 | 0.00 | 43 | 1011.8 |
| 20260503223002 | 78 | 326 | 3.5 | 8.7 | 0.00 | 0.00 | 0.00 | 42 | 1012.0 |
| 20260503222503 | 78 | 328 | 1.7 | 7.8 | 0.00 | 0.00 | 0.00 | 43 | 1011.9 |
| 20260503222002 | 78 | 309 | 2.6 | 7.8 | 0.00 | 0.00 | 0.00 | 43 | 1012.0 |
| 20260503221501 | 78 | 329 | 3.5 | 9.6 | 0.00 | 0.00 | 0.00 | 42 | 1012.0 |
| 20260503221004 | 78 | 294 | 2.6 | 10.4 | 0.00 | 0.00 | 0.00 | 40 | 1012.1 |
| 20260503220504 | 79 | 331 | 1.7 | 10.4 | 0.00 | 0.00 | 0.00 | 40 | 1012.2 |
| 20260503220017 | 80 | 53 | 2.6 | 9.6 | 0.00 | 0.00 | 0.00 | 40 | 1012.1 |
| 20260503215502 | 80 | 350 | 1.7 | 9.6 | 0.00 | 0.00 | 0.00 | 39 | 1012.1 |
| 20260503215003 | 80 | 22 | 1.7 | 6.1 | 0.00 | 0.00 | 0.00 | 40 | 1012.2 |
| 20260503214510 | 80 | 36 | 1.7 | 5.2 | 0.00 | 0.00 | 0.00 | 39 | 1012.1 |
| 20260503214003 | 79 | 296 | 1.7 | 7.0 | 0.00 | 0.00 | 0.00 | 40 | 1012.2 |
| 20260503213504 | 79 | 333 | 2.6 | 7.0 | 0.00 | 0.00 | 0.00 | 42 | 1012.2 |
| 20260503213011 | 79 | 360 | 2.6 | 6.1 | 0.00 | 0.00 | 0.00 | 40 | 1012.2 |
| 20260503212506 | 79 | 288 | 2.6 | 8.7 | 0.00 | 0.00 | 0.00 | 40 | 1012.3 |
| 20260503212003 | 79 | 344 | 1.7 | 8.7 | 0.00 | 0.00 | 0.00 | 40 | 1012.3 |
| 20260503211504 | 79 | 212 | 2.6 | 7.0 | 0.00 | 0.00 | 0.00 | 41 | 1012.4 |
| 20260503211003 | 79 | 49 | 3.5 | 5.2 | 0.00 | 0.00 | 0.00 | 42 | 1012.4 |
| 20260503210503 | 79 | 287 | 1.7 | 5.2 | 0.00 | 0.00 | 0.00 | 42 | 1012.4 |
| 20260503210008 | 79 | 311 | 0.9 | 6.1 | 0.00 | 0.00 | 0.00 | 41 | 1012.5 |
| 20260503205504 | 78 | 39 | 2.6 | 7.0 | 0.00 | 0.00 | 0.00 | 40 | 1012.6 |
| 20260503205004 | 79 | 334 | 2.6 | 7.0 | 0.00 | 0.00 | 0.00 | 40 | 1012.7 |
| 20260503204512 | 78 | 51 | 1.7 | 5.2 | 0.00 | 0.00 | 0.00 | 42 | 1012.7 |
| 20260503204003 | 78 | 344 | 2.6 | 4.3 | 0.00 | 0.00 | 0.00 | 41 | 1012.8 |
| 20260503203506 | 78 | 34 | 1.7 | 6.1 | 0.00 | 0.00 | 0.00 | 41 | 1012.8 |
| 20260503203010 | 78 | 15 | 1.7 | 6.1 | 0.00 | 0.00 | 0.00 | 41 | 1012.8 |
| 20260503202504 | 78 | 253 | 0.9 | 6.1 | 0.00 | 0.00 | 0.00 | 42 | 1012.8 |
| 20260503202006 | 78 | 325 | 1.7 | 5.2 | 0.00 | 0.00 | 0.00 | 43 | 1012.9 |
| 20260503201511 | 78 | 344 | 1.7 | 5.2 | 0.00 | 0.00 | 0.00 | 43 | 1013.0 |
| 20260503201003 | 78 | 236 | 0.9 | 6.1 | 0.00 | 0.00 | 0.00 | 43 | 1013.0 |
| 20260503200505 | 78 | 346 | 1.7 | 6.1 | 0.00 | 0.00 | 0.00 | 45 | 1013.2 |
| 20260503200005 | 78 | 317 | 1.7 | 7.8 | 0.00 | 0.00 | 0.00 | 43 | 1013.3 |
| 20260503195504 | 77 | 5 | 0.9 | 7.8 | 0.00 | 0.00 | 0.00 | 45 | 1013.3 |
| 20260503195003 | 77 | 258 | 0.9 | 7.0 | 0.00 | 0.00 | 0.00 | 45 | 1013.3 |
| 20260503194510 | 77 | 219 | 1.7 | 7.0 | 0.00 | 0.00 | 0.00 | 43 | 1013.4 |
| 20260503194003 | 77 | 58 | 3.5 | 7.0 | 0.00 | 0.00 | 0.00 | 46 | 1013.5 |
| 20260503193507 | 77 | 22 | 0.9 | 4.3 | 0.00 | 0.00 | 0.00 | 46 | 1013.6 |
| 20260503193011 | 76 | 335 | 0.9 | 7.0 | 0.00 | 0.00 | 0.00 | 44 | 1013.7 |
| 20260503192506 | 76 | 341 | 0.9 | 7.0 | 0.00 | 0.00 | 0.00 | 44 | 1013.9 |
| 20260503192004 | 76 | 206 | 0.9 | 5.2 | 0.00 | 0.00 | 0.00 | 45 | 1013.9 |
| 20260503191513 | 76 | 72 | 1.7 | 5.2 | 0.00 | 0.00 | 0.00 | 44 | 1013.9 |
| 20260503191006 | 75 | 319 | 0.9 | 7.8 | 0.00 | 0.00 | 0.00 | 47 | 1013.9 |
| 20260503190504 | 75 | 71 | 1.7 | 7.8 | 0.00 | 0.00 | 0.00 | 46 | 1013.9 |
| 20260503190013 | 75 | 9 | 1.7 | 5.2 | 0.00 | 0.00 | 0.00 | 46 | 1014.0 |
| 20260503185503 | 75 | 60 | 1.7 | 7.0 | 0.00 | 0.00 | 0.00 | 48 | 1014.0 |
| 20260503185004 | 75 | 338 | 2.6 | 7.0 | 0.00 | 0.00 | 0.00 | 48 | 1014.0 |
| 20260503184511 | 75 | 9 | 1.7 | 5.2 | 0.00 | 0.00 | 0.00 | 48 | 1014.1 |
| 20260503184002 | 75 | 304 | 2.6 | 7.0 | 0.00 | 0.00 | 0.00 | 47 | 1014.1 |
| 20260503183504 | 74 | 315 | 1.7 | 7.0 | 0.00 | 0.00 | 0.00 | 49 | 1014.1 |
| 20260503183010 | 74 | 333 | 1.7 | 5.2 | 0.00 | 0.00 | 0.00 | 49 | 1014.1 |
| 20260503182503 | 74 | 344 | 0.9 | 5.2 | 0.00 | 0.00 | 0.00 | 49 | 1014.1 |
| 20260503182007 | 73 | 333 | 2.6 | 7.0 | 0.00 | 0.00 | 0.00 | 50 | 1014.2 |
| 20260503181512 | 73 | 15 | 3.5 | 7.0 | 0.00 | 0.00 | 0.00 | 48 | 1014.2 |
| 20260503181005 | 74 | 39 | 1.7 | 6.1 | 0.00 | 0.00 | 0.00 | 47 | 1014.3 |
| 20260503180504 | 73 | 84 | 1.7 | 7.0 | 0.00 | 0.00 | 0.00 | 47 | 1014.2 |
| 20260503180016 | 73 | 345 | 2.6 | 7.0 | 0.00 | 0.00 | 0.00 | 49 | 1014.3 |
| 20260503175504 | 73 | 26 | 3.5 | 6.1 | 0.00 | 0.00 | 0.00 | 48 | 1014.3 |
| 20260503175003 | 73 | 86 | 3.5 | 6.1 | 0.00 | 0.00 | 0.00 | 50 | 1014.3 |
| 20260503174519 | 72 | 73 | 2.6 | 7.0 | 0.00 | 0.00 | 0.00 | 51 | 1014.3 |
| 20260503174003 | 71 | 319 | 2.6 | 7.0 | 0.00 | 0.00 | 0.00 | 51 | 1014.4 |
| 20260503173504 | 71 | 298 | 1.7 | 5.2 | 0.00 | 0.00 | 0.00 | 51 | 1014.3 |
| 20260503173010 | 71 | 327 | 2.6 | 5.2 | 0.00 | 0.00 | 0.00 | 52 | 1014.4 |
| 20260503172504 | 71 | 320 | 1.7 | 4.3 | 0.00 | 0.00 | 0.00 | 55 | 1014.5 |
| 20260503172004 | 70 | 51 | 1.7 | 4.3 | 0.00 | 0.00 | 0.00 | 56 | 1014.5 |
| 20260503171514 | 70 | 79 | 2.6 | 5.2 | 0.00 | 0.00 | 0.00 | 54 | 1014.5 |
| 20260503171006 | 69 | 344 | 1.7 | 7.0 | 0.00 | 0.00 | 0.00 | 56 | 1014.5 |
| 20260503170507 | 69 | 57 | 2.6 | 7.0 | 0.00 | 0.00 | 0.00 | 56 | 1014.5 |
| 20260503130503 | 54 | 38 | 0.0 | 0.0 | 0.00 | 0.00 | 0.00 | 80 | 1014.6 |
| 20260503110503 | 55 | 13 | 0.0 | 0.0 | 0.00 | 0.00 | 0.00 | 74 | 1014.9 |
| 20260503090507 | 56 | 42 | 0.0 | 0.9 | 0.00 | 0.00 | 0.00 | 68 | 1015.0 |
| 20260503081515 | 58 | 41 | 0.0 | 0.0 | 0.00 | 0.00 | 0.00 | 62 | 1015.1 |
| 20260503081008 | 58 | 41 | 0.0 | 1.7 | 0.00 | 0.00 | 0.00 | 62 | 1015.1 |
| 20260503072006 | 58 | 30 | 0.0 | 0.0 | 0.00 | 0.00 | 0.00 | 66 | 1015.0 |
| 20260503071514 | 58 | 30 | 0.0 | 0.0 | 0.00 | 0.00 | 0.00 | 64 | 1014.9 |
| 20260503071008 | 58 | 30 | 0.0 | 0.0 | 0.00 | 0.00 | 0.00 | 64 | 1014.9 |
| 20260503055012 | 60 | 30 | 0.0 | 0.0 | 0.00 | 0.00 | 0.00 | 60 | 1014.8 |
| 20260503054523 | 61 | 30 | 0.0 | 0.0 | 0.00 | 0.00 | 0.00 | 60 | 1014.8 |
| 20260503053509 | 61 | 30 | 0.0 | 1.7 | 0.00 | 0.00 | 0.00 | 58 | 1014.9 |
| 20260503053033 | 61 | 29 | 0.0 | 0.0 | 0.00 | 0.00 | 0.00 | 58 | 1014.9 |
| 20260503052503 | 62 | 29 | 0.0 | 0.0 | 0.00 | 0.00 | 0.00 | 58 | 1014.8 |
| 20260503052006 | 62 | 29 | 0.0 | 1.7 | 0.00 | 0.00 | 0.00 | 57 | 1014.9 |
| 20260503051507 | 62 | 29 | 0.0 | 1.7 | 0.00 | 0.00 | 0.00 | 57 | 1014.8 |
| 20260503050503 | 62 | 34 | 0.0 | 0.9 | 0.00 | 0.00 | 0.00 | 56 | 1014.9 |
| 20260503050010 | 62 | 50 | 0.0 | 1.7 | 0.00 | 0.00 | 0.00 | 57 | 1014.8 |
| 20260503045506 | 62 | 59 | 0.9 | 2.6 | 0.00 | 0.00 | 0.00 | 57 | 1014.8 |
| 20260503044508 | 63 | 54 | 0.0 | 1.7 | 0.00 | 0.00 | 0.00 | 57 | 1014.7 |
| 20260503044002 | 63 | 54 | 0.0 | 1.7 | 0.00 | 0.00 | 0.00 | 57 | 1014.7 |
| 20260503043502 | 63 | 30 | 0.0 | 1.7 | 0.00 | 0.00 | 0.00 | 56 | 1014.7 |
| 20260503043002 | 63 | 30 | 0.0 | 1.7 | 0.00 | 0.00 | 0.00 | 56 | 1014.7 |
| 20260503042513 | 64 | 20 | 0.0 | 3.5 | 0.00 | 0.00 | 0.00 | 57 | 1014.6 |
| 20260503042003 | 64 | 20 | 0.0 | 3.5 | 0.00 | 0.00 | 0.00 | 57 | 1014.6 |
| 20260503041506 | 64 | 60 | 0.9 | 1.7 | 0.00 | 0.00 | 0.00 | 56 | 1014.5 |
| 20260503041003 | 64 | 79 | 0.0 | 1.7 | 0.00 | 0.00 | 0.00 | 55 | 1014.4 |
| 20260503040505 | 65 | 57 | 0.0 | 2.6 | 0.00 | 0.00 | 0.00 | 55 | 1014.4 |
| 20260503040012 | 65 | 58 | 0.9 | 2.6 | 0.00 | 0.00 | 0.00 | 55 | 1014.3 |
| 20260503035505 | 65 | 55 | 0.0 | 1.7 | 0.00 | 0.00 | 0.00 | 55 | 1014.3 |
| 20260503035004 | 65 | 360 | 0.0 | 3.5 | 0.00 | 0.00 | 0.00 | 54 | 1014.2 |
| 20260503034514 | 65 | 11 | 0.9 | 3.5 | 0.00 | 0.00 | 0.00 | 54 | 1014.2 |
| 20260503034004 | 66 | 9 | 0.0 | 1.7 | 0.00 | 0.00 | 0.00 | 54 | 1014.1 |
| 20260503033002 | 66 | 352 | 0.0 | 2.6 | 0.00 | 0.00 | 0.00 | 55 | 1014.0 |
| 20260503032502 | 66 | 347 | 0.0 | 2.6 | 0.00 | 0.00 | 0.00 | 55 | 1014.0 |
| 20260503032004 | 67 | 314 | 0.0 | 1.7 | 0.00 | 0.00 | 0.00 | 54 | 1013.9 |
| 20260503031506 | 67 | 334 | 0.0 | 2.6 | 0.00 | 0.00 | 0.00 | 54 | 1013.9 |
| 20260503031004 | 67 | 9 | 0.0 | 3.5 | 0.00 | 0.00 | 0.00 | 54 | 1013.8 |
| 20260503030504 | 67 | 5 | 0.9 | 3.5 | 0.00 | 0.00 | 0.00 | 53 | 1013.9 |
| 20260503030008 | 68 | 341 | 0.0 | 2.6 | 0.00 | 0.00 | 0.00 | 53 | 1013.8 |
| 20260503025504 | 68 | 352 | 0.0 | 3.5 | 0.00 | 0.00 | 0.00 | 52 | 1013.8 |
| 20260503025004 | 68 | 360 | 1.7 | 4.3 | 0.00 | 0.00 | 0.00 | 52 | 1013.7 |
| 20260503024511 | 68 | 66 | 0.9 | 7.0 | 0.00 | 0.00 | 0.00 | 52 | 1013.7 |
| 20260503024009 | 69 | 352 | 0.9 | 7.0 | 0.00 | 0.00 | 0.00 | 51 | 1013.7 |
| 20260503023017 | 69 | 51 | 0.0 | 7.8 | 0.00 | 0.00 | 0.00 | 51 | 1013.6 |
| 20260503022013 | 70 | 348 | 0.9 | 7.8 | 0.00 | 0.00 | 0.00 | 51 | 1013.6 |
| 20260503021502 | 70 | 321 | 0.9 | 7.8 | 0.00 | 0.00 | 0.00 | 51 | 1013.5 |
| 20260503021004 | 71 | 352 | 1.7 | 7.8 | 0.00 | 0.00 | 0.00 | 51 | 1013.5 |
| 20260503020506 | 71 | 339 | 2.6 | 7.8 | 0.00 | 0.00 | 0.00 | 51 | 1013.5 |
| 20260503020007 | 71 | 360 | 0.9 | 9.6 | 0.00 | 0.00 | 0.00 | 51 | 1013.5 |
| 20260503015504 | 71 | 329 | 1.7 | 9.6 | 0.00 | 0.00 | 0.00 | 52 | 1013.5 |
| 20260503015003 | 72 | 9 | 1.7 | 6.1 | 0.00 | 0.00 | 0.00 | 51 | 1013.6 |
| 20260503014509 | 72 | 85 | 2.6 | 6.1 | 0.00 | 0.00 | 0.00 | 51 | 1013.5 |
| 20260503014003 | 72 | 298 | 1.7 | 3.5 | 0.00 | 0.00 | 0.00 | 51 | 1013.6 |
| 20260503013503 | 72 | 177 | 0.9 | 3.5 | 0.00 | 0.00 | 0.00 | 51 | 1013.6 |
| 20260503013014 | 72 | 345 | 0.9 | 3.5 | 0.00 | 0.00 | 0.00 | 52 | 1013.6 |
| 20260503012507 | 72 | 290 | 0.9 | 7.0 | 0.00 | 0.00 | 0.00 | 52 | 1013.6 |
| 20260503012009 | 73 | 74 | 2.6 | 8.7 | 0.00 | 0.00 | 0.00 | 51 | 1013.6 |
| 20260503011522 | 73 | 340 | 1.7 | 8.7 | 0.00 | 0.00 | 0.00 | 51 | 1013.6 |
| 20260503011007 | 73 | 352 | 0.9 | 7.8 | 0.00 | 0.00 | 0.00 | 53 | 1013.6 |
| 20260503010502 | 73 | 360 | 0.9 | 7.0 | 0.00 | 0.00 | 0.00 | 52 | 1013.6 |
| 20260503010031 | 72 | 5 | 3.5 | 9.6 | 0.00 | 0.00 | 0.00 | 52 | 1013.6 |
| 20260503005503 | 73 | 307 | 0.9 | 9.6 | 0.00 | 0.00 | 0.00 | 53 | 1013.6 |
| 20260503005004 | 73 | 350 | 3.5 | 9.6 | 0.00 | 0.00 | 0.00 | 51 | 1013.7 |
| 20260503004508 | 73 | 352 | 1.7 | 7.0 | 0.00 | 0.00 | 0.00 | 52 | 1013.7 |
| 20260503004007 | 73 | 319 | 2.6 | 7.8 | 0.00 | 0.00 | 0.00 | 52 | 1013.8 |
| 20260503003503 | 73 | 352 | 1.7 | 7.8 | 0.00 | 0.00 | 0.00 | 52 | 1013.9 |
| 20260503003013 | 73 | 333 | 3.5 | 8.7 | 0.00 | 0.00 | 0.00 | 1013.9 | |
| 20260503002505 | 74 | 323 | 5.2 | 8.7 | 0.00 | 0.00 | 0.00 | 49 | 1013.9 |
| 20260503002007 | 74 | 290 | 0.9 | 7.0 | 0.00 | 0.00 | 0.00 | 49 | 1013.8 |
| 20260503001521 | 75 | 295 | 1.7 | 5.2 | 0.00 | 0.00 | 0.00 | 49 | 1013.9 |
| 20260503001008 | 75 | 336 | 0.9 | 3.5 | 0.00 | 0.00 | 0.00 | 49 | 1013.9 |
| 20260503000512 | 74 | 286 | 1.7 | 5.2 | 0.00 | 0.00 | 0.00 | 48 | 1013.9 |
| 20260503000039 | 74 | 360 | 1.7 | 7.8 | 0.00 | 0.00 | 0.00 | 50 | 1013.9 |
| 20260502235509 | 74 | 350 | 2.6 | 7.8 | 0.00 | 0.00 | 0.00 | 49 | 1013.9 |
| 20260502235004 | 74 | 338 | 0.9 | 7.0 | 0.00 | 0.00 | 0.00 | 49 | 1014.0 |
| 20260502234508 | 74 | 294 | 1.7 | 7.0 | 0.00 | 0.00 | 0.00 | 50 | 1014.1 |
| 20260502234004 | 73 | 142 | 1.7 | 7.8 | 0.00 | 0.00 | 0.00 | 52 | 1014.2 |
| 20260502233503 | 73 | 47 | 3.5 | 9.6 | 0.00 | 0.00 | 0.00 | 50 | 1014.2 |
| 20260502233012 | 73 | 10 | 3.5 | 9.6 | 0.00 | 0.00 | 0.00 | 51 | 1014.3 |
| 20260502232507 | 73 | 352 | 2.6 | 7.0 | 0.00 | 0.00 | 0.00 | 50 | 1014.4 |
| 20260502232007 | 73 | 329 | 0.9 | 8.7 | 0.00 | 0.00 | 0.00 | 52 | 1014.5 |
| 20260502231513 | 73 | 309 | 2.6 | 11.3 | 0.00 | 0.00 | 0.00 | 51 | 1014.6 |
| 20260502231004 | 72 | 327 | 2.6 | 11.3 | 0.00 | 0.00 | 0.00 | 51 | 1014.6 |
| 20260502230507 | 73 | 24 | 4.3 | 10.4 | 0.00 | 0.00 | 0.00 | 51 | 1014.7 |
| 20260502230024 | 73 | 351 | 0.9 | 10.4 | 0.00 | 0.00 | 0.00 | 51 | 1014.8 |
| 20260502225511 | 73 | 313 | 2.6 | 10.4 | 0.00 | 0.00 | 0.00 | 50 | 1014.9 |